This is the latest recevied weather packets stored in our database for station/object JL1LCW-13. If no packets are shown the sender has not sent any weather packets the latest 10 day(s).
| Time | Temp. | Humidity | Pressure | Rain* | Wind** | Luminosity | Snow |
|---|---|---|---|---|---|---|---|
| 1777729019 | 16.11° C | 80% | 1012 hPa | 0 mm | - | - | - |
| 1777726317 | 17.22° C | 75% | 1011 hPa | 0 mm | - | - | - |
| 1777725419 | 17.22° C | 73% | 1011 hPa | 0 mm | - | - | - |
| 1777722718 | 17.22° C | 69% | 1010 hPa | 0 mm | - | - | - |
| 1777721818 | 17.22° C | 72% | 1010 hPa | 0 mm | - | - | - |
| 1777719118 | 18.89° C | 59% | 1009 hPa | 0 mm | - | - | - |
| 1777718218 | 18.89° C | 54% | 1009 hPa | 0 mm | - | - | - |
| 1777715519 | 21.11° C | 46% | 1008 hPa | 0 mm | - | - | - |
| 1777714618 | 21.11° C | 46% | 1008 hPa | 0 mm | - | - | - |
| 1777711919 | 23.89° C | 38% | 1008 hPa | 0 mm | - | - | - |
| 1777711019 | 23.89° C | 36% | 1008 hPa | 0 mm | - | - | - |
| 1777708318 | 26.11° C | 33% | 1007 hPa | 0 mm | - | - | - |
| 1777707418 | 26.11° C | 33% | 1007 hPa | 0 mm | - | - | - |
| 1777704719 | 27.22° C | 31% | 1006 hPa | 0 mm | - | - | - |
| 1777703818 | 27.78° C | 32% | 1006 hPa | 0 mm | - | - | - |
| 1777701118 | 27.78° C | 27% | 1005 hPa | 0 mm | - | - | - |
| 1777700218 | 27.22° C | 28% | 1005 hPa | 0 mm | - | - | - |
| 1777697519 | 27.22° C | 28% | 1005 hPa | 0 mm | - | - | - |
| 1777696618 | 27.22° C | 30% | 1005 hPa | 0 mm | - | - | - |
| 1777693919 | 27.22° C | 30% | 1004 hPa | 0 mm | - | - | - |
| 1777693019 | 26.11° C | 30% | 1004 hPa | 0 mm | - | - | - |
| 1777690317 | 26.11° C | 38% | 1003 hPa | 0 mm | - | - | - |
| 1777689417 | 26.11° C | 45% | 1003 hPa | 0 mm | - | - | - |
| 1777686718 | 25° C | 54% | 1003 hPa | 0 mm | - | - | - |
| 1777685818 | 23.89° C | 52% | 1003 hPa | 0 mm | - | - | - |
* Rain latest hour (hover to see other rain measurements)
** Current wind speed in m/s (hover to see current wind gust speed)